Time;durP1;ratioP1;P1;durP2;ratioP2;P2;SDS_P1;SDS_P2;PMS_P1;PMS_P2;Temp;Humidity;BMP_temperature;BMP_pressure;BME280_temperature;BME280_humidity;BME280_pressure;Samples;Min_cycle;Max_cycle;Signal;HPM_P1;HPM_P2
2023/09/08 00:01:12;;;;;;;9.83;8.27;;;;;;;18.65;100.00;150732.88;4987232;28;20239;-58
2023/09/08 00:03:38;;;;;;;9.53;8.00;;;;;;;18.58;100.00;150717.84;4992076;28;20290;-55
2023/09/08 00:06:05;;;;;;;10.73;7.37;;;;;;;18.54;100.00;150707.88;4984109;28;20240;-59
2023/09/08 00:08:32;;;;;;;9.73;8.00;;;;;;;18.44;100.00;150684.06;4988583;28;20246;-58
2023/09/08 00:10:59;;;;;;;8.60;7.60;;;;;;;18.42;100.00;150679.06;4969343;28;21408;-58
2023/09/08 00:13:26;;;;;;;10.80;7.87;;;;;;;18.35;100.00;150660.31;4985165;28;20228;-58
2023/09/08 00:15:53;;;;;;;11.10;7.90;;;;;;;18.29;100.00;150647.81;4986257;28;20241;-56
2023/09/08 00:18:19;;;;;;;9.53;7.53;;;;;;;18.28;100.00;150645.28;4994201;28;20238;-58
2023/09/08 00:20:46;;;;;;;10.40;8.03;;;;;;;18.23;100.00;150631.50;4986480;28;20242;-57
2023/09/08 00:23:12;;;;;;;11.70;8.23;;;;;;;18.20;100.00;150625.28;4986078;28;20230;-58
2023/09/08 00:25:39;;;;;;;9.27;8.23;;;;;;;18.24;100.00;150635.28;4983698;28;20238;-58
2023/09/08 00:28:07;;;;;;;9.83;8.13;;;;;;;18.23;100.00;150631.50;4988343;28;20910;-54
2023/09/08 00:30:34;;;;;;;10.13;7.67;;;;;;;18.25;100.00;150636.50;4988111;28;20246;-56
2023/09/08 00:33:01;;;;;;;9.33;7.80;;;;;;;18.18;100.00;150619.00;4972876;28;20226;-55
2023/09/08 00:35:27;;;;;;;8.90;7.83;;;;;;;18.14;100.00;150610.25;4974370;28;20230;-56
2023/09/08 00:37:54;;;;;;;14.77;8.33;;;;;;;18.12;100.00;150606.47;4987431;28;20225;-58
2023/09/08 00:40:20;;;;;;;11.00;7.93;;;;;;;18.18;100.00;150619.00;4978072;28;20225;-55
2023/09/08 00:42:47;;;;;;;8.43;7.53;;;;;;;18.10;100.00;150600.25;4986707;28;20247;-58
2023/09/08 00:45:15;;;;;;;8.87;7.90;;;;;;;18.12;100.00;150606.47;4986639;28;20246;-57
2023/09/08 00:47:42;;;;;;;10.23;8.23;;;;;;;18.17;100.00;150616.50;4961141;28;20237;-57
2023/09/08 00:50:09;;;;;;;9.10;7.87;;;;;;;18.20;100.00;150624.00;4964147;28;20243;-58
2023/09/08 00:52:36;;;;;;;11.00;8.50;;;;;;;18.35;100.00;150660.31;4985898;28;20232;-58
2023/09/08 00:55:03;;;;;;;11.23;8.30;;;;;;;18.28;100.00;150644.03;4968408;28;20239;-56
2023/09/08 00:57:30;;;;;;;10.17;7.80;;;;;;;18.24;100.00;150635.28;4984576;28;20224;-57
2023/09/08 00:59:57;;;;;;;9.47;8.00;;;;;;;18.22;100.00;150629.00;4970458;28;20235;-57
2023/09/08 01:02:25;;;;;;;13.10;8.47;;;;;;;18.21;100.00;150627.78;4971265;28;20254;-57
2023/09/08 01:04:52;;;;;;;9.43;8.23;;;;;;;18.17;100.00;150616.50;4964501;28;20235;-58
2023/09/08 01:07:20;;;;;;;9.60;8.63;;;;;;;18.15;100.00;150614.00;4963872;28;20226;-57
2023/09/08 01:09:48;;;;;;;8.90;8.00;;;;;;;18.14;100.00;150610.25;4984773;28;20351;-57
2023/09/08 01:12:16;;;;;;;11.13;7.97;;;;;;;18.10;100.00;150600.25;4962801;28;20231;-56
2023/09/08 01:14:43;;;;;;;11.63;8.43;;;;;;;18.05;100.00;150587.72;4982697;28;20218;-58
2023/09/08 01:17:09;;;;;;;9.40;8.13;;;;;;;18.03;100.00;150583.94;4988688;28;20716;-57
2023/09/08 01:19:38;;;;;;;10.43;8.10;;;;;;;18.02;100.00;150581.44;4971825;28;20229;-56
2023/09/08 01:22:19;;;;;;;10.20;7.70;;;;;;;17.96;100.00;150566.44;4967046;28;20941;-58
2023/09/08 01:25:05;;;;;;;12.13;7.57;;;;;;;17.91;100.00;150555.16;4966499;28;20233;-58
2023/09/08 01:27:34;;;;;;;9.80;8.50;;;;;;;17.90;100.00;150552.66;4989361;28;20698;-58
2023/09/08 01:30:02;;;;;;;10.27;7.93;;;;;;;17.97;100.00;150568.94;4984819;28;20229;-56
2023/09/08 01:32:30;;;;;;;9.83;8.17;;;;;;;17.90;100.00;150552.66;4982540;28;20337;-56
2023/09/08 01:34:58;;;;;;;12.40;8.40;;;;;;;17.86;100.00;150542.63;4965759;28;20235;-57
2023/09/08 01:37:26;;;;;;;10.83;8.27;;;;;;;17.89;100.00;150548.91;4978626;28;20672;-58
2023/09/08 01:39:53;;;;;;;11.67;8.53;;;;;;;17.91;100.00;150555.16;4975746;28;20240;-57
2023/09/08 01:42:22;;;;;;;11.63;8.47;;;;;;;17.92;100.00;150556.44;4973264;28;20731;-57
2023/09/08 01:44:48;;;;;;;13.03;8.70;;;;;;;17.91;100.00;150553.91;4984617;28;20232;-57
2023/09/08 01:47:15;;;;;;;11.33;8.63;;;;;;;17.83;100.00;150535.13;4967955;28;20232;-58
2023/09/08 01:49:41;;;;;;;11.27;8.83;;;;;;;17.81;100.00;150530.13;4989202;28;20249;-57
2023/09/08 01:52:08;;;;;;;11.90;9.03;;;;;;;17.83;100.00;150535.13;4967639;28;20228;-58
2023/09/08 01:54:35;;;;;;;9.93;8.60;;;;;;;17.87;100.00;150543.91;4987218;28;20237;-57
2023/09/08 01:57:02;;;;;;;9.80;8.40;;;;;;;17.89;100.00;150548.91;4983501;28;20233;-57
2023/09/08 01:59:30;;;;;;;10.10;8.70;;;;;;;17.81;100.00;150530.13;4987656;28;20242;-58
2023/09/08 02:01:56;;;;;;;12.77;8.80;;;;;;;17.75;100.00;150516.38;4964247;28;20305;-58
2023/09/08 02:04:23;;;;;;;9.80;8.70;;;;;;;17.76;100.00;150517.63;4986284;28;20226;-58
2023/09/08 02:06:50;;;;;;;9.30;8.03;;;;;;;17.75;100.00;150515.13;4975168;28;20242;-57
2023/09/08 02:09:16;;;;;;;10.40;9.23;;;;;;;17.70;100.00;150503.88;4985530;28;20755;-58
2023/09/08 02:11:43;;;;;;;10.70;8.20;;;;;;;17.63;100.00;150486.34;4959814;28;20702;-58
2023/09/08 02:14:10;;;;;;;10.07;8.43;;;;;;;17.69;100.00;150501.38;4968717;28;20237;-55
2023/09/08 02:16:38;;;;;;;9.97;8.90;;;;;;;17.77;100.00;150521.38;4958989;28;20235;-58
2023/09/08 02:19:07;;;;;;;9.53;8.03;;;;;;;17.70;100.00;150505.09;4986931;28;20236;-58
2023/09/08 02:21:33;;;;;;;12.43;8.80;;;;;;;17.66;100.00;150493.88;4975840;28;20237;-57
2023/09/08 02:24:00;;;;;;;14.60;8.63;;;;;;;17.63;100.00;150487.59;4963670;28;20237;-57
2023/09/08 02:26:27;;;;;;;10.43;7.87;;;;;;;17.61;100.00;150482.59;4989652;28;20233;-57
2023/09/08 02:28:54;;;;;;;10.70;9.13;;;;;;;17.54;100.00;150465.06;4974528;28;20766;-58
2023/09/08 02:31:20;;;;;;;11.43;8.50;;;;;;;17.48;100.00;150451.34;4965184;28;20262;-57
2023/09/08 02:33:49;;;;;;;10.00;8.20;;;;;;;17.43;100.00;150438.81;4966831;28;20336;-58
2023/09/08 02:36:16;;;;;;;10.20;7.90;;;;;;;17.36;100.00;150422.59;4973130;28;20272;-57
2023/09/08 02:38:42;;;;;;;9.60;8.10;;;;;;;17.39;100.00;150430.09;4974165;28;20225;-58
2023/09/08 02:41:09;;;;;;;13.77;9.37;;;;;;;17.38;100.00;150427.59;4977406;28;20316;-55
2023/09/08 02:43:36;;;;;;;11.10;8.53;;;;;;;17.29;100.00;150403.78;4977196;28;20229;-58
2023/09/08 02:46:03;;;;;;;9.77;8.37;;;;;;;17.24;100.00;150393.78;4973917;28;20241;-58
2023/09/08 02:48:31;;;;;;;10.27;8.73;;;;;;;17.19;100.00;150381.28;4974728;28;20237;-54
2023/09/08 02:50:59;;;;;;;10.40;8.83;;;;;;;17.22;100.00;150387.56;4979728;28;20226;-57
2023/09/08 02:53:28;;;;;;;9.97;8.27;;;;;;;17.23;100.00;150390.06;4967736;28;20251;-57
2023/09/08 02:55:56;;;;;;;10.00;9.00;;;;;;;17.15;100.00;150371.28;4979361;28;20236;-58
2023/09/08 02:58:22;;;;;;;16.43;9.10;;;;;;;17.16;100.00;150373.78;4976618;28;20233;-55
2023/09/08 03:03:50;;;;;;;9.70;8.23;;;;;;;17.08;100.00;150353.78;5733614;23;20221;-55
2023/09/08 03:06:21;;;;;;;9.57;8.57;;;;;;;17.04;100.00;150343.75;4998466;28;20239;-55
2023/09/08 03:08:48;;;;;;;9.83;8.07;;;;;;;17.04;100.00;150343.75;5003998;28;20237;-55
2023/09/08 03:11:15;;;;;;;11.10;9.00;;;;;;;17.01;100.00;150337.53;4977971;28;20259;-53
2023/09/08 03:13:41;;;;;;;12.93;9.30;;;;;;;17.00;100.00;150333.75;4975473;28;20232;-52
2023/09/08 03:16:11;;;;;;;11.87;8.30;;;;;;;16.95;100.00;150323.75;5001470;28;20309;-54
2023/09/08 03:18:38;;;;;;;11.80;9.00;;;;;;;16.97;100.00;150328.75;5003358;28;20292;-53
2023/09/08 03:21:09;;;;;;;11.77;9.17;;;;;;;16.87;100.00;150303.75;4975516;28;20329;-52
2023/09/08 03:23:38;;;;;;;10.53;8.80;;;;;;;16.87;100.00;150303.75;4977313;28;20232;-54
2023/09/08 03:26:04;;;;;;;12.00;9.43;;;;;;;16.86;100.00;150301.25;5003072;28;20324;-52
2023/09/08 03:28:34;;;;;;;11.50;9.70;;;;;;;16.86;100.00;150301.25;4988676;28;20236;-52
2023/09/08 03:31:01;;;;;;;13.63;9.27;;;;;;;16.80;100.00;150287.47;5218366;22;21395;-56
2023/09/08 03:33:30;;;;;;;13.67;8.87;;;;;;;16.72;100.00;150267.47;5006302;28;20281;-57
2023/09/08 03:35:57;;;;;;;10.20;9.20;;;;;;;16.70;100.00;150262.47;4968374;28;20229;-57
2023/09/08 03:38:24;;;;;;;11.77;10.30;;;;;;;16.70;100.00;150262.47;4980104;28;20319;-56
2023/09/08 03:40:54;;;;;;;16.00;10.80;;;;;;;16.71;100.00;150263.72;4972685;28;20236;-56
2023/09/08 03:43:21;;;;;;;13.20;10.93;;;;;;;16.67;100.00;150256.22;4988375;28;20305;-56
2023/09/08 03:45:48;;;;;;;14.30;10.73;;;;;;;16.72;100.00;150266.22;4996056;28;20312;-57
2023/09/08 03:48:14;;;;;;;12.77;10.73;;;;;;;16.62;100.00;150243.72;4991956;28;20253;-57
2023/09/08 03:50:45;;;;;;;13.43;10.00;;;;;;;16.61;100.00;150241.22;4988848;28;20632;-56
2023/09/08 03:53:11;;;;;;;11.40;9.87;;;;;;;16.55;100.00;150224.94;4986970;28;20224;-57
2023/09/08 03:55:38;;;;;;;12.37;10.50;;;;;;;16.51;100.00;150216.22;4991953;28;20222;-56
2023/09/08 03:58:06;;;;;;;11.93;9.70;;;;;;;16.46;100.00;150204.94;5007226;28;20245;-57
2023/09/08 04:00:33;;;;;;;11.40;9.57;;;;;;;16.44;100.00;150199.94;4992702;28;20232;-56
2023/09/08 04:02:59;;;;;;;12.13;10.17;;;;;;;16.41;100.00;150192.50;4984282;28;20251;-57
2023/09/08 04:05:26;;;;;;;14.07;10.20;;;;;;;16.42;100.00;150193.72;4990075;28;20587;-56
2023/09/08 04:07:53;;;;;;;12.50;10.30;;;;;;;16.39;100.00;150187.50;4987853;28;20234;-57
2023/09/08 04:10:20;;;;;;;14.37;11.37;;;;;;;16.40;100.00;150188.72;5007387;28;20321;-57
2023/09/08 04:12:47;;;;;;;14.50;11.13;;;;;;;16.40;100.00;150188.72;4975185;28;20296;-56
2023/09/08 04:15:15;;;;;;;13.67;11.60;;;;;;;16.39;100.00;150187.50;4984240;28;20233;-57
2023/09/08 04:17:42;;;;;;;13.83;11.07;;;;;;;16.42;100.00;150195.00;4992209;28;20321;-57
2023/09/08 04:20:09;;;;;;;12.40;10.80;;;;;;;16.41;100.00;150192.50;4987517;28;20256;-56
2023/09/08 04:22:36;;;;;;;11.70;10.33;;;;;;;16.36;100.00;150181.22;4992180;28;20237;-56
2023/09/08 04:25:03;;;;;;;11.07;9.87;;;;;;;16.42;100.00;150195.00;4980579;28;22115;-57
2023/09/08 04:27:29;;;;;;;11.17;9.43;;;;;;;16.37;100.00;150182.50;4994115;28;20236;-57
2023/09/08 04:29:56;;;;;;;14.03;10.27;;;;;;;16.31;100.00;150168.72;4998738;28;21138;-56
2023/09/08 04:32:24;;;;;;;14.70;10.77;;;;;;;16.26;100.00;150156.22;4993985;28;20598;-56
2023/09/08 04:34:51;;;;;;;14.20;10.37;;;;;;;16.26;100.00;150156.22;4983086;28;20323;-57
2023/09/08 04:37:18;;;;;;;12.17;10.17;;;;;;;16.30;100.00;150166.22;4983975;28;20231;-56
2023/09/08 04:39:45;;;;;;;11.63;10.43;;;;;;;16.30;100.00;150165.00;4988702;28;20756;-54
2023/09/08 04:42:13;;;;;;;11.63;9.93;;;;;;;16.25;100.00;150152.50;4992402;28;20238;-55
2023/09/08 04:44:40;;;;;;;12.20;10.77;;;;;;;16.22;100.00;150146.22;4989843;28;20688;-56
2023/09/08 04:47:08;;;;;;;12.47;10.37;;;;;;;16.20;100.00;150142.50;5004506;28;20237;-57
2023/09/08 04:49:38;;;;;;;10.63;9.53;;;;;;;16.18;100.00;150136.22;4987728;28;20219;-56
2023/09/08 04:52:05;;;;;;;12.70;10.50;;;;;;;16.16;100.00;150131.22;4971803;28;20239;-56
2023/09/08 04:54:34;;;;;;;13.93;10.37;;;;;;;16.15;100.00;150128.72;4985714;28;20232;-56
2023/09/08 04:57:01;;;;;;;13.13;10.00;;;;;;;16.17;100.00;150135.00;4982837;28;20708;-55
2023/09/08 04:59:28;;;;;;;12.37;10.37;;;;;;;16.21;100.00;150143.72;4986859;28;20231;-56
2023/09/08 05:01:54;;;;;;;16.37;10.73;;;;;;;16.21;100.00;150143.72;4981411;28;20695;-57
2023/09/08 05:04:22;;;;;;;13.93;11.03;;;;;;;16.20;100.00;150142.50;4990956;28;20217;-56
2023/09/08 05:06:51;;;;;;;13.03;10.60;;;;;;;16.22;100.00;150147.50;4976503;28;20228;-56
2023/09/08 05:09:19;;;;;;;17.23;10.50;;;;;;;16.23;100.00;150148.72;5002512;28;20234;-57
2023/09/08 05:11:45;;;;;;;16.40;10.50;;;;;;;16.25;100.00;150153.72;5000221;28;20602;-56
2023/09/08 05:14:12;;;;;;;12.03;9.70;;;;;;;16.32;100.00;150171.22;5003381;28;20234;-55
2023/09/08 05:16:45;;;;;;;12.30;10.00;;;;;;;16.29;100.00;150163.72;4989215;28;20241;-56
2023/09/08 05:19:14;;;;;;;13.30;10.47;;;;;;;16.35;100.00;150177.50;4985903;28;20230;-57
2023/09/08 05:21:41;;;;;;;15.27;11.17;;;;;;;16.38;100.00;150186.22;4973051;28;20226;-56
2023/09/08 05:24:09;;;;;;;10.87;9.70;;;;;;;16.44;100.00;150198.72;4977119;28;20719;-56
2023/09/08 05:26:38;;;;;;;15.03;10.73;;;;;;;16.45;100.00;150202.44;4983142;28;20600;-56
2023/09/08 05:29:07;;;;;;;12.53;10.27;;;;;;;16.53;100.00;150222.44;4985397;28;20635;-56
2023/09/08 05:31:34;;;;;;;13.17;11.43;;;;;;;16.57;100.00;150231.22;4992305;28;20326;-56
2023/09/08 05:34:04;;;;;;;15.23;11.60;;;;;;;16.61;100.00;150241.22;4971883;28;20238;-55
2023/09/08 05:36:32;;;;;;;17.60;10.63;;;;;;;16.67;100.00;150254.97;4983481;28;20711;-56
2023/09/08 05:38:59;;;;;;;11.43;10.17;;;;;;;16.72;100.00;150266.22;4984918;28;20238;-56
2023/09/08 05:41:27;;;;;;;13.73;10.67;;;;;;;16.76;100.00;150277.47;4983954;28;20302;-56
2023/09/08 05:43:54;;;;;;;14.07;11.47;;;;;;;16.78;100.00;150281.25;5002690;28;20231;-56
2023/09/08 05:46:20;;;;;;;13.10;10.83;;;;;;;16.81;100.00;150289.97;4977933;28;20292;-56
2023/09/08 05:48:48;;;;;;;13.70;10.33;;;;;;;16.89;100.00;150308.75;4980578;28;20259;-56
2023/09/08 05:51:15;;;;;;;16.00;10.70;;;;;;;16.92;100.00;150316.25;4993958;28;20240;-56
2023/09/08 05:53:43;;;;;;;66.60;21.30;;;;;;;16.95;100.00;150323.75;4970360;28;20241;-56
2023/09/08 05:56:10;;;;;;;36.00;15.50;;;;;;;17.02;100.00;150338.75;5003569;28;20245;-56
2023/09/08 05:58:40;;;;;;;14.43;10.80;;;;;;;17.06;100.00;150350.03;4988722;28;20231;-57
2023/09/08 06:01:07;;;;;;;15.10;10.73;;;;;;;17.08;100.00;150353.78;4979777;28;20235;-57
2023/09/08 06:03:35;;;;;;;13.17;10.97;;;;;;;17.13;100.00;150366.28;4992983;28;20260;-56
2023/09/08 06:06:02;;;;;;;14.80;10.73;;;;;;;17.16;100.00;150373.78;4985057;28;20315;-56
2023/09/08 06:08:29;;;;;;;11.47;9.87;;;;;;;17.19;100.00;150381.28;4974470;28;20552;-57
2023/09/08 06:10:56;;;;;;;18.93;12.03;;;;;;;17.23;100.00;150391.28;4998812;28;20234;-55
2023/09/08 06:13:24;;;;;;;18.63;10.87;;;;;;;17.30;100.00;150406.31;4984068;28;20237;-55
2023/09/08 06:15:53;;;;;;;16.27;10.17;;;;;;;17.32;100.00;150411.31;4989216;28;20236;-56
2023/09/08 06:18:21;;;;;;;29.43;13.00;;;;;;;17.35;100.00;150418.81;4997800;28;20243;-56
2023/09/08 06:20:49;;;;;;;36.23;13.90;;;;;;;17.37;100.00;150423.81;5003164;28;20325;-57
2023/09/08 06:23:16;;;;;;;50.50;18.60;;;;;;;17.46;100.00;150445.09;4987260;28;20580;-56
2023/09/08 06:25:43;;;;;;;29.00;14.77;;;;;;;17.49;100.00;150453.84;4990978;28;20312;-57
2023/09/08 06:28:10;;;;;;;25.63;14.13;;;;;;;17.54;100.00;150466.34;5004546;28;20300;-57
2023/09/08 06:30:41;;;;;;;26.63;13.80;;;;;;;17.55;100.00;150467.56;4988524;28;20237;-57
2023/09/08 06:33:10;;;;;;;51.53;20.07;;;;;;;17.58;100.00;150475.06;4984214;28;20706;-56
2023/09/08 06:35:37;;;;;;;68.20;21.27;;;;;;;17.62;100.00;150485.09;4985552;28;20269;-56
2023/09/08 06:38:05;;;;;;;23.13;13.27;;;;;;;17.65;100.00;150492.59;4985511;28;20324;-57
2023/09/08 06:40:33;;;;;;;22.23;12.57;;;;;;;17.69;100.00;150501.38;4971967;28;20247;-57
2023/09/08 06:43:00;;;;;;;20.67;11.37;;;;;;;17.77;100.00;150521.38;4976915;28;20723;-57
2023/09/08 06:45:42;;;;;;;11.53;9.97;;;;;;;17.85;100.00;150540.13;4981913;28;20289;-56
2023/09/08 06:48:10;;;;;;;10.27;9.27;;;;;;;17.92;100.00;150556.44;4995761;28;20704;-56
2023/09/08 06:50:37;;;;;;;11.37;9.37;;;;;;;18.01;100.00;150579.00;4983856;28;20709;-57
2023/09/08 06:53:04;;;;;;;12.90;10.90;;;;;;;18.09;100.00;150598.97;4985778;28;20250;-56
2023/09/08 06:55:31;;;;;;;12.23;10.37;;;;;;;18.18;100.00;150619.00;5002895;28;20257;-57
2023/09/08 06:57:58;;;;;;;10.80;9.27;;;;;;;18.28;100.00;150644.03;4988110;28;20225;-55
2023/09/08 07:00:25;;;;;;;10.83;9.70;;;;;;;18.41;100.00;150675.34;4977118;28;20361;-56
2023/09/08 07:02:53;;;;;;;11.00;9.87;;;;;;;18.51;100.00;150700.38;4979604;28;20237;-55
2023/09/08 07:05:21;;;;;;;11.93;9.83;;;;;;;18.61;100.00;150724.13;4982907;28;20239;-56
2023/09/08 07:07:48;;;;;;;48.80;17.13;;;;;;;18.71;100.00;150749.16;4988436;28;20319;-57
2023/09/08 07:10:15;;;;;;;30.63;14.20;;;;;;;18.83;100.00;150776.72;4989942;28;20309;-55
2023/09/08 07:12:42;;;;;;;33.70;13.97;;;;;;;18.95;100.00;150806.75;4978493;28;20257;-56
2023/09/08 07:15:10;;;;;;;26.13;13.67;;;;;;;19.08;100.00;150836.84;4985605;28;20233;-56
2023/09/08 07:17:37;;;;;;;41.03;17.33;;;;;;;19.20;100.00;150865.63;4991232;28;20586;-57
2023/09/08 07:20:05;;;;;;;20.40;11.97;;;;;;;19.30;100.00;150890.66;4989123;28;20243;-59
2023/09/08 07:22:33;;;;;;;13.40;10.37;;;;;;;19.42;100.00;150919.44;4990490;28;20246;-55
2023/09/08 07:25:00;;;;;;;19.10;11.43;;;;;;;19.51;100.00;150940.75;4999999;28;20747;-56
2023/09/08 07:27:27;;;;;;;18.53;11.10;;;;;;;19.57;100.00;150957.03;4985604;28;20227;-57
2023/09/08 07:29:54;;;;;;;12.53;10.50;;;;;;;19.68;100.00;150982.06;4981053;28;20230;-57
2023/09/08 07:32:22;;;;;;;14.83;13.03;;;;;;;19.76;100.00;151002.09;4985936;28;20244;-58
2023/09/08 07:34:54;;;;;;;17.13;12.17;;;;;;;19.88;100.00;151030.91;4994992;28;20318;-58
2023/09/08 07:37:22;;;;;;;12.40;10.40;;;;;;;20.01;100.00;151063.50;4974777;28;20231;-56
2023/09/08 07:39:50;;;;;;;14.80;11.27;;;;;;;20.10;100.00;151083.56;4993646;28;20227;-57
2023/09/08 07:42:17;;;;;;;18.57;11.93;;;;;;;20.13;100.00;151091.06;4989744;28;20240;-57
2023/09/08 07:44:44;;;;;;;15.33;11.13;;;;;;;20.20;100.00;151108.63;4985725;28;20229;-57
2023/09/08 07:47:11;;;;;;;12.73;11.23;;;;;;;20.23;100.00;151116.13;4991030;28;20232;-58
2023/09/08 07:49:38;;;;;;;13.50;10.63;;;;;;;20.32;100.00;151137.41;4988471;28;20267;-58
2023/09/08 07:52:07;;;;;;;13.57;10.30;;;;;;;20.41;100.00;151158.72;4984762;28;20251;-57
2023/09/08 07:54:33;;;;;;;15.27;12.30;;;;;;;20.47;100.00;151173.78;4988931;28;20559;-58
2023/09/08 07:57:01;;;;;;;15.60;11.60;;;;;;;20.54;100.00;151190.03;4982661;28;20237;-57
2023/09/08 07:59:28;;;;;;;17.90;10.47;;;;;;;20.62;100.00;151211.38;4983821;28;20230;-58
2023/09/08 08:01:55;;;;;;;14.97;11.20;;;;;;;20.74;100.00;151240.16;4981013;28;20276;-58
2023/09/08 08:04:21;;;;;;;12.30;10.80;;;;;;;20.79;100.00;151251.47;4982870;28;20561;-58
2023/09/08 08:06:49;;;;;;;16.10;10.53;;;;;;;20.80;100.00;151253.97;4984722;28;20237;-57
2023/09/08 08:09:15;;;;;;;16.80;11.20;;;;;;;20.94;100.00;151287.84;4993028;28;20322;-57
2023/09/08 08:11:42;;;;;;;12.00;10.17;;;;;;;20.98;100.00;151296.59;4986655;28;20572;-58
2023/09/08 08:14:10;;;;;;;15.93;10.83;;;;;;;21.06;100.00;151317.94;4979492;28;20641;-58
2023/09/08 08:16:37;;;;;;;13.40;11.40;;;;;;;21.06;100.00;151317.94;4987483;28;20231;-57
2023/09/08 08:19:07;;;;;;;12.80;11.47;;;;;;;21.12;100.00;151330.47;4979780;28;20234;-58
2023/09/08 08:21:34;;;;;;;12.20;10.17;;;;;;;21.19;100.00;151348.00;4984801;28;20736;-56
2023/09/08 08:24:07;;;;;;;13.47;10.87;;;;;;;21.29;100.00;151371.81;4980539;28;20240;-58
2023/09/08 08:26:34;;;;;;;20.10;13.27;;;;;;;21.37;100.00;151393.09;4994532;28;20230;-58
2023/09/08 08:29:04;;;;;;;14.27;12.60;;;;;;;21.30;100.00;151374.31;4981256;28;20237;-57
2023/09/08 08:31:33;;;;;;;14.53;10.93;;;;;;;21.31;100.00;151378.03;4979278;28;20238;-57
2023/09/08 08:33:59;;;;;;;16.87;11.77;;;;;;;21.44;100.00;151408.13;4980264;28;20227;-57
2023/09/08 08:36:26;;;;;;;13.67;12.10;;;;;;;21.50;100.00;151423.19;4993261;28;20232;-57
2023/09/08 08:38:52;;;;;;;16.90;12.40;;;;;;;21.59;100.00;151444.53;4982357;28;20224;-57
2023/09/08 08:41:19;;;;;;;21.23;13.40;;;;;;;21.58;100.00;151443.25;4992843;28;20230;-54
2023/09/08 08:43:47;;;;;;;12.73;11.17;;;;;;;21.73;100.00;151479.63;4987372;28;20233;-57
2023/09/08 08:46:14;;;;;;;18.47;12.60;;;;;;;21.81;98.60;151498.47;4989639;28;20253;-57
2023/09/08 08:48:43;;;;;;;14.17;12.17;;;;;;;21.89;97.13;151518.53;4985447;28;20571;-57
2023/09/08 08:51:12;;;;;;;12.90;11.47;;;;;;;22.01;97.69;151546.13;4985865;28;20241;-57
2023/09/08 08:53:40;;;;;;;15.13;12.20;;;;;;;22.15;98.37;151579.97;4984180;28;20689;-57
2023/09/08 08:56:09;;;;;;;13.53;11.17;;;;;;;22.29;97.37;151613.78;4980743;28;20701;-56
2023/09/08 08:58:37;;;;;;;13.63;12.23;;;;;;;22.35;96.09;151628.84;4988976;28;20268;-57
2023/09/08 09:01:04;;;;;;;13.03;10.97;;;;;;;22.32;96.89;151622.59;4981691;28;20247;-57
2023/09/08 09:03:32;;;;;;;15.37;11.93;;;;;;;22.42;94.84;151647.69;4987406;28;20314;-57
2023/09/08 09:06:01;;;;;;;18.33;11.70;;;;;;;22.48;94.19;151660.28;4985814;28;20239;-58
2023/09/08 09:08:28;;;;;;;13.33;11.40;;;;;;;22.54;94.42;151676.56;4987247;28;20253;-57
2023/09/08 09:10:55;;;;;;;17.10;11.43;;;;;;;22.59;95.13;151686.59;4982460;28;20602;-57
2023/09/08 09:13:22;;;;;;;12.90;10.90;;;;;;;22.69;93.53;151712.97;4985505;28;20280;-57
2023/09/08 09:15:49;;;;;;;15.07;11.67;;;;;;;22.81;92.45;151740.53;4981504;28;20575;-58
2023/09/08 09:18:16;;;;;;;12.77;10.50;;;;;;;22.94;93.44;151771.91;4987303;28;20221;-57
2023/09/08 09:20:55;;;;;;;12.80;10.90;;;;;;;22.92;92.00;151768.13;4988712;28;20735;-56
2023/09/08 09:23:29;;;;;;;12.63;10.87;;;;;;;22.98;92.16;151781.94;4986057;28;20300;-57
2023/09/08 09:25:56;;;;;;;13.33;11.37;;;;;;;23.12;90.92;151815.81;4993102;28;20257;-59
2023/09/08 09:28:23;;;;;;;15.83;11.53;;;;;;;23.13;91.58;151819.59;4995337;28;20239;-57
2023/09/08 09:30:51;;;;;;;17.47;11.93;;;;;;;23.17;91.14;151828.34;4990957;28;20227;-57
2023/09/08 09:33:19;;;;;;;12.10;10.77;;;;;;;23.20;90.25;151835.88;4987556;28;20257;-57
2023/09/08 09:35:46;;;;;;;13.10;11.67;;;;;;;23.29;88.65;151857.28;4980391;28;20703;-58
2023/09/08 09:38:14;;;;;;;13.40;11.03;;;;;;;23.38;88.27;151878.59;4984597;28;20237;-57
2023/09/08 09:40:42;;;;;;;13.03;11.27;;;;;;;23.50;87.57;151908.72;4989037;28;20228;-56
2023/09/08 09:43:09;;;;;;;17.57;11.30;;;;;;;23.48;85.99;151902.44;4984031;28;20244;-57
2023/09/08 09:45:36;;;;;;;15.67;11.13;;;;;;;23.40;86.73;151884.84;4984237;28;20595;-57
2023/09/08 09:48:04;;;;;;;15.00;12.17;;;;;;;23.49;87.02;151904.94;4985698;28;20237;-57
2023/09/08 09:50:32;;;;;;;15.93;12.10;;;;;;;23.57;88.43;151925.03;4984294;28;20233;-56
2023/09/08 09:53:00;;;;;;;14.37;12.13;;;;;;;23.49;88.12;151906.22;4982385;28;20258;-57
2023/09/08 09:55:27;;;;;;;14.47;11.67;;;;;;;23.56;85.42;151922.50;4983650;28;20239;-56
2023/09/08 09:57:58;;;;;;;14.13;10.67;;;;;;;23.72;86.08;151961.44;4984636;28;20249;-57
2023/09/08 10:00:26;;;;;;;14.73;11.70;;;;;;;23.82;84.31;151986.56;4986907;28;20702;-57
2023/09/08 10:02:52;;;;;;;11.60;10.40;;;;;;;23.91;86.48;152006.59;4981628;28;20274;-57
2023/09/08 10:05:19;;;;;;;11.10;9.70;;;;;;;24.02;84.15;152035.53;4980035;28;20242;-57
2023/09/08 10:07:47;;;;;;;16.93;11.20;;;;;;;24.11;83.10;152056.84;4984024;28;20254;-57
2023/09/08 10:10:14;;;;;;;12.77;11.20;;;;;;;24.01;84.74;152033.03;4976546;28;20235;-58
2023/09/08 10:12:44;;;;;;;13.53;10.67;;;;;;;24.08;84.27;152049.31;4987733;28;20256;-57
2023/09/08 10:15:14;;;;;;;14.63;11.00;;;;;;;24.09;84.50;152050.59;4976829;28;20243;-57
2023/09/08 10:17:43;;;;;;;15.47;12.07;;;;;;;24.08;84.37;152049.31;4983521;28;20247;-58
2023/09/08 10:20:11;;;;;;;11.00;9.90;;;;;;;24.24;84.35;152087.00;4981401;28;20233;-58
2023/09/08 10:22:42;;;;;;;13.63;11.47;;;;;;;24.34;82.48;152110.88;4987867;28;20691;-57
2023/09/08 10:25:11;;;;;;;15.53;10.70;;;;;;;24.29;82.15;152100.81;4981509;28;20781;-57
2023/09/08 10:27:38;;;;;;;12.53;10.97;;;;;;;24.31;83.85;152104.56;4986404;28;20752;-57
2023/09/08 10:30:07;;;;;;;13.57;10.70;;;;;;;24.25;82.32;152090.78;4982834;28;20822;-57
2023/09/08 10:32:36;;;;;;;12.57;10.97;;;;;;;24.28;82.25;152097.03;4987101;28;20308;-58
2023/09/08 10:35:04;;;;;;;15.70;10.77;;;;;;;24.41;81.65;152129.69;4980654;28;22380;-58
2023/09/08 10:37:32;;;;;;;11.23;9.90;;;;;;;24.49;81.13;152148.50;4987194;28;20240;-57
2023/09/08 10:40:21;;;;;;;12.10;10.53;;;;;;;24.61;81.27;152178.63;4974037;28;20232;-58
2023/09/08 10:42:48;;;;;;;11.60;9.83;;;;;;;24.73;82.67;152206.31;4982827;28;20302;-57
2023/09/08 10:45:20;;;;;;;13.70;9.43;;;;;;;24.80;80.27;152222.66;4987442;28;20711;-58
2023/09/08 10:48:00;;;;;;;12.40;10.90;;;;;;;24.91;80.11;152250.25;4984067;28;20733;-57
2023/09/08 10:50:31;;;;;;;13.03;10.50;;;;;;;25.05;78.63;152284.19;4987647;28;20229;-58
2023/09/08 10:53:10;;;;;;;12.57;9.70;;;;;;;25.02;77.25;152277.88;4988887;28;20334;-58
2023/09/08 10:55:38;;;;;;;11.30;10.17;;;;;;;25.11;79.60;152297.97;4987594;28;20241;-58
2023/09/08 10:58:05;;;;;;;12.67;9.93;;;;;;;25.18;80.91;152316.84;4987435;28;20245;-57
2023/09/08 11:00:44;;;;;;;11.70;9.23;;;;;;;25.32;77.99;152349.50;4985528;28;20256;-57
2023/09/08 11:03:13;;;;;;;10.77;9.33;;;;;;;25.32;76.66;152349.50;4976901;28;20224;-58
2023/09/08 11:05:40;;;;;;;10.43;9.40;;;;;;;25.31;76.64;152347.00;4980949;28;20243;-57
2023/09/08 11:08:06;;;;;;;10.83;9.70;;;;;;;25.29;75.14;152341.97;4982087;28;20246;-57
2023/09/08 11:10:34;;;;;;;10.10;9.20;;;;;;;25.50;75.60;152394.72;4987611;28;20222;-57
2023/09/08 11:13:03;;;;;;;12.93;9.80;;;;;;;25.64;74.59;152427.41;4979400;28;20279;-56